sensor_id;sensor_type;location;lat;lon;timestamp;P1;durP1;ratioP1;P2;durP2;ratioP2
77085;SDS011;66014;53.134;18.006;2023-08-20T00:01:22;20.90;;;14.90;;
77085;SDS011;66014;53.134;18.006;2023-08-20T00:03:51;18.60;;;14.50;;
77085;SDS011;66014;53.134;18.006;2023-08-20T00:06:19;19.10;;;14.40;;
77085;SDS011;66014;53.134;18.006;2023-08-20T00:08:47;18.90;;;14.60;;
77085;SDS011;66014;53.134;18.006;2023-08-20T00:11:14;20.10;;;15.00;;
77085;SDS011;66014;53.134;18.006;2023-08-20T00:13:42;19.80;;;14.90;;
77085;SDS011;66014;53.134;18.006;2023-08-20T00:16:09;21.10;;;15.80;;
77085;SDS011;66014;53.134;18.006;2023-08-20T00:18:37;19.40;;;15.40;;
77085;SDS011;66014;53.134;18.006;2023-08-20T00:21:05;21.80;;;15.40;;
77085;SDS011;66014;53.134;18.006;2023-08-20T00:23:33;18.10;;;14.90;;
77085;SDS011;66014;53.134;18.006;2023-08-20T00:26:00;18.80;;;14.40;;
77085;SDS011;66014;53.134;18.006;2023-08-20T00:28:28;20.80;;;15.20;;
77085;SDS011;66014;53.134;18.006;2023-08-20T00:30:55;20.10;;;15.20;;
77085;SDS011;66014;53.134;18.006;2023-08-20T00:33:22;19.70;;;14.40;;
77085;SDS011;66014;53.134;18.006;2023-08-20T00:35:48;21.60;;;15.50;;
77085;SDS011;66014;53.134;18.006;2023-08-20T00:38:15;18.90;;;14.70;;
77085;SDS011;66014;53.134;18.006;2023-08-20T00:40:41;25.10;;;16.10;;
77085;SDS011;66014;53.134;18.006;2023-08-20T00:43:08;19.30;;;15.30;;
77085;SDS011;66014;53.134;18.006;2023-08-20T00:45:35;22.10;;;15.00;;
77085;SDS011;66014;53.134;18.006;2023-08-20T00:48:03;21.50;;;14.30;;
77085;SDS011;66014;53.134;18.006;2023-08-20T00:50:31;20.20;;;15.30;;
77085;SDS011;66014;53.134;18.006;2023-08-20T00:52:59;19.70;;;15.20;;
77085;SDS011;66014;53.134;18.006;2023-08-20T00:55:25;19.70;;;14.90;;
77085;SDS011;66014;53.134;18.006;2023-08-20T00:57:53;21.50;;;15.50;;
77085;SDS011;66014;53.134;18.006;2023-08-20T01:00:19;20.60;;;15.30;;
77085;SDS011;66014;53.134;18.006;2023-08-20T01:05:16;19.80;;;15.10;;
77085;SDS011;66014;53.134;18.006;2023-08-20T01:13:15;20.70;;;14.40;;
77085;SDS011;66014;53.134;18.006;2023-08-20T01:15:42;20.80;;;15.60;;
77085;SDS011;66014;53.134;18.006;2023-08-20T01:18:09;22.40;;;15.60;;
77085;SDS011;66014;53.134;18.006;2023-08-20T01:20:37;21.00;;;16.00;;
77085;SDS011;66014;53.134;18.006;2023-08-20T01:23:16;19.90;;;15.30;;
77085;SDS011;66014;53.134;18.006;2023-08-20T01:28:49;20.50;;;15.20;;
77085;SDS011;66014;53.134;18.006;2023-08-20T01:31:20;22.20;;;15.20;;
77085;SDS011;66014;53.134;18.006;2023-08-20T01:33:49;19.50;;;14.60;;
77085;SDS011;66014;53.134;18.006;2023-08-20T01:36:16;20.60;;;16.00;;
77085;SDS011;66014;53.134;18.006;2023-08-20T01:38:43;22.90;;;16.10;;
77085;SDS011;66014;53.134;18.006;2023-08-20T01:41:09;20.70;;;15.50;;
77085;SDS011;66014;53.134;18.006;2023-08-20T01:43:36;21.20;;;16.20;;
77085;SDS011;66014;53.134;18.006;2023-08-20T01:46:02;19.60;;;15.00;;
77085;SDS011;66014;53.134;18.006;2023-08-20T01:48:29;22.40;;;16.50;;
77085;SDS011;66014;53.134;18.006;2023-08-20T01:50:59;21.70;;;16.00;;
77085;SDS011;66014;53.134;18.006;2023-08-20T01:53:25;24.40;;;15.70;;
77085;SDS011;66014;53.134;18.006;2023-08-20T01:55:51;25.30;;;15.90;;
77085;SDS011;66014;53.134;18.006;2023-08-20T01:58:18;21.60;;;15.40;;
77085;SDS011;66014;53.134;18.006;2023-08-20T02:00:45;23.90;;;15.90;;
77085;SDS011;66014;53.134;18.006;2023-08-20T02:03:12;21.20;;;15.50;;
77085;SDS011;66014;53.134;18.006;2023-08-20T02:05:39;21.90;;;15.80;;
77085;SDS011;66014;53.134;18.006;2023-08-20T02:08:05;21.50;;;15.70;;
77085;SDS011;66014;53.134;18.006;2023-08-20T02:10:32;21.20;;;15.60;;
77085;SDS011;66014;53.134;18.006;2023-08-20T02:12:58;19.70;;;14.80;;
77085;SDS011;66014;53.134;18.006;2023-08-20T02:15:25;20.40;;;15.60;;
77085;SDS011;66014;53.134;18.006;2023-08-20T02:17:52;21.30;;;15.90;;
77085;SDS011;66014;53.134;18.006;2023-08-20T02:20:18;21.10;;;15.40;;
77085;SDS011;66014;53.134;18.006;2023-08-20T02:22:45;20.70;;;15.40;;
77085;SDS011;66014;53.134;18.006;2023-08-20T02:25:12;20.80;;;16.20;;
77085;SDS011;66014;53.134;18.006;2023-08-20T02:27:38;22.00;;;16.10;;
77085;SDS011;66014;53.134;18.006;2023-08-20T02:30:05;19.30;;;15.40;;
77085;SDS011;66014;53.134;18.006;2023-08-20T02:32:32;20.80;;;16.20;;
77085;SDS011;66014;53.134;18.006;2023-08-20T02:34:59;23.70;;;16.40;;
77085;SDS011;66014;53.134;18.006;2023-08-20T02:37:26;21.00;;;15.90;;
77085;SDS011;66014;53.134;18.006;2023-08-20T02:39:52;21.70;;;15.40;;
77085;SDS011;66014;53.134;18.006;2023-08-20T02:42:19;24.10;;;16.00;;
77085;SDS011;66014;53.134;18.006;2023-08-20T02:44:46;22.60;;;16.80;;
77085;SDS011;66014;53.134;18.006;2023-08-20T02:47:12;20.60;;;15.30;;
77085;SDS011;66014;53.134;18.006;2023-08-20T02:49:42;19.40;;;15.90;;
77085;SDS011;66014;53.134;18.006;2023-08-20T02:52:08;21.20;;;15.60;;
77085;SDS011;66014;53.134;18.006;2023-08-20T02:54:35;20.20;;;15.70;;
77085;SDS011;66014;53.134;18.006;2023-08-20T02:57:05;19.80;;;15.60;;
77085;SDS011;66014;53.134;18.006;2023-08-20T02:59:32;20.90;;;16.40;;
77085;SDS011;66014;53.134;18.006;2023-08-20T03:02:00;19.20;;;15.20;;
77085;SDS011;66014;53.134;18.006;2023-08-20T03:04:28;19.80;;;15.30;;
77085;SDS011;66014;53.134;18.006;2023-08-20T03:06:55;19.60;;;15.20;;
77085;SDS011;66014;53.134;18.006;2023-08-20T03:09:21;21.50;;;15.30;;
77085;SDS011;66014;53.134;18.006;2023-08-20T03:11:48;21.30;;;15.60;;
77085;SDS011;66014;53.134;18.006;2023-08-20T03:14:15;18.50;;;15.20;;
77085;SDS011;66014;53.134;18.006;2023-08-20T03:16:42;19.60;;;15.00;;
77085;SDS011;66014;53.134;18.006;2023-08-20T03:19:08;18.60;;;14.90;;
77085;SDS011;66014;53.134;18.006;2023-08-20T03:21:35;19.30;;;14.90;;
77085;SDS011;66014;53.134;18.006;2023-08-20T03:24:01;21.70;;;15.60;;
77085;SDS011;66014;53.134;18.006;2023-08-20T03:26:28;20.40;;;14.60;;
77085;SDS011;66014;53.134;18.006;2023-08-20T03:28:54;19.30;;;15.40;;
77085;SDS011;66014;53.134;18.006;2023-08-20T03:31:21;21.50;;;15.50;;
77085;SDS011;66014;53.134;18.006;2023-08-20T03:33:48;21.60;;;15.80;;
77085;SDS011;66014;53.134;18.006;2023-08-20T03:36:14;22.30;;;15.30;;
77085;SDS011;66014;53.134;18.006;2023-08-20T03:38:41;20.50;;;16.00;;
77085;SDS011;66014;53.134;18.006;2023-08-20T03:41:08;28.30;;;17.10;;
77085;SDS011;66014;53.134;18.006;2023-08-20T03:43:34;22.60;;;16.30;;
77085;SDS011;66014;53.134;18.006;2023-08-20T03:46:01;23.20;;;16.60;;
77085;SDS011;66014;53.134;18.006;2023-08-20T03:48:28;19.00;;;16.00;;
77085;SDS011;66014;53.134;18.006;2023-08-20T03:50:55;22.70;;;15.30;;
77085;SDS011;66014;53.134;18.006;2023-08-20T03:53:22;26.00;;;16.70;;
77085;SDS011;66014;53.134;18.006;2023-08-20T03:55:49;24.80;;;18.00;;
77085;SDS011;66014;53.134;18.006;2023-08-20T03:58:16;23.80;;;17.00;;
77085;SDS011;66014;53.134;18.006;2023-08-20T04:00:43;24.00;;;17.20;;
77085;SDS011;66014;53.134;18.006;2023-08-20T04:03:10;30.00;;;17.90;;
77085;SDS011;66014;53.134;18.006;2023-08-20T04:05:37;22.90;;;17.10;;
77085;SDS011;66014;53.134;18.006;2023-08-20T04:08:04;22.40;;;17.00;;
77085;SDS011;66014;53.134;18.006;2023-08-20T04:10:32;24.10;;;16.90;;
77085;SDS011;66014;53.134;18.006;2023-08-20T04:12:59;21.50;;;15.90;;
77085;SDS011;66014;53.134;18.006;2023-08-20T04:15:25;21.40;;;16.90;;
77085;SDS011;66014;53.134;18.006;2023-08-20T04:17:52;22.80;;;17.40;;
77085;SDS011;66014;53.134;18.006;2023-08-20T04:20:19;24.40;;;17.30;;
77085;SDS011;66014;53.134;18.006;2023-08-20T04:22:45;21.00;;;16.50;;
77085;SDS011;66014;53.134;18.006;2023-08-20T04:25:12;23.20;;;17.30;;
77085;SDS011;66014;53.134;18.006;2023-08-20T04:27:38;23.00;;;16.10;;
77085;SDS011;66014;53.134;18.006;2023-08-20T04:30:05;24.00;;;15.50;;
77085;SDS011;66014;53.134;18.006;2023-08-20T04:32:35;21.10;;;16.20;;
77085;SDS011;66014;53.134;18.006;2023-08-20T04:35:02;23.50;;;16.60;;
77085;SDS011;66014;53.134;18.006;2023-08-20T04:37:29;20.80;;;16.00;;
77085;SDS011;66014;53.134;18.006;2023-08-20T04:39:55;22.60;;;16.30;;
77085;SDS011;66014;53.134;18.006;2023-08-20T04:42:22;22.40;;;16.40;;
77085;SDS011;66014;53.134;18.006;2023-08-20T04:44:48;22.80;;;16.60;;
77085;SDS011;66014;53.134;18.006;2023-08-20T04:47:15;22.50;;;15.80;;
77085;SDS011;66014;53.134;18.006;2023-08-20T04:49:42;24.70;;;17.00;;
77085;SDS011;66014;53.134;18.006;2023-08-20T04:52:12;23.00;;;16.80;;
77085;SDS011;66014;53.134;18.006;2023-08-20T04:54:38;21.20;;;15.80;;
77085;SDS011;66014;53.134;18.006;2023-08-20T04:57:05;24.90;;;16.70;;
77085;SDS011;66014;53.134;18.006;2023-08-20T04:59:31;23.00;;;16.80;;
77085;SDS011;66014;53.134;18.006;2023-08-20T05:01:58;21.80;;;16.60;;
77085;SDS011;66014;53.134;18.006;2023-08-20T05:04:24;23.80;;;16.80;;
77085;SDS011;66014;53.134;18.006;2023-08-20T05:06:51;23.00;;;16.80;;
77085;SDS011;66014;53.134;18.006;2023-08-20T05:09:18;23.90;;;17.50;;
77085;SDS011;66014;53.134;18.006;2023-08-20T05:11:44;28.60;;;17.90;;
77085;SDS011;66014;53.134;18.006;2023-08-20T05:14:11;25.30;;;17.40;;
77085;SDS011;66014;53.134;18.006;2023-08-20T05:16:37;22.90;;;16.80;;
77085;SDS011;66014;53.134;18.006;2023-08-20T05:19:04;22.70;;;16.60;;
77085;SDS011;66014;53.134;18.006;2023-08-20T05:21:30;20.90;;;16.20;;
77085;SDS011;66014;53.134;18.006;2023-08-20T05:23:57;24.30;;;16.50;;
77085;SDS011;66014;53.134;18.006;2023-08-20T05:26:24;23.00;;;17.20;;
77085;SDS011;66014;53.134;18.006;2023-08-20T05:28:50;23.90;;;18.00;;
77085;SDS011;66014;53.134;18.006;2023-08-20T05:31:17;24.30;;;19.20;;
77085;SDS011;66014;53.134;18.006;2023-08-20T05:33:43;24.40;;;18.00;;
77085;SDS011;66014;53.134;18.006;2023-08-20T05:36:10;25.30;;;18.40;;
77085;SDS011;66014;53.134;18.006;2023-08-20T05:38:36;26.00;;;17.80;;
77085;SDS011;66014;53.134;18.006;2023-08-20T05:41:02;27.50;;;17.60;;
77085;SDS011;66014;53.134;18.006;2023-08-20T05:43:32;24.20;;;18.30;;
77085;SDS011;66014;53.134;18.006;2023-08-20T05:45:58;22.80;;;16.60;;
77085;SDS011;66014;53.134;18.006;2023-08-20T05:48:25;20.50;;;16.50;;
77085;SDS011;66014;53.134;18.006;2023-08-20T05:50:51;20.70;;;15.60;;
77085;SDS011;66014;53.134;18.006;2023-08-20T05:53:18;17.60;;;15.30;;
77085;SDS011;66014;53.134;18.006;2023-08-20T05:55:45;19.00;;;15.10;;
77085;SDS011;66014;53.134;18.006;2023-08-20T05:58:12;17.30;;;14.90;;
77085;SDS011;66014;53.134;18.006;2023-08-20T06:00:38;18.10;;;14.10;;
77085;SDS011;66014;53.134;18.006;2023-08-20T06:03:05;16.90;;;13.80;;
77085;SDS011;66014;53.134;18.006;2023-08-20T06:05:33;17.70;;;13.20;;
77085;SDS011;66014;53.134;18.006;2023-08-20T06:08:00;17.10;;;13.00;;
77085;SDS011;66014;53.134;18.006;2023-08-20T06:10:26;13.80;;;12.40;;
77085;SDS011;66014;53.134;18.006;2023-08-20T06:12:53;14.00;;;12.00;;
77085;SDS011;66014;53.134;18.006;2023-08-20T06:15:20;15.00;;;12.10;;
77085;SDS011;66014;53.134;18.006;2023-08-20T06:17:47;14.60;;;11.70;;
77085;SDS011;66014;53.134;18.006;2023-08-20T06:20:13;15.60;;;12.20;;
77085;SDS011;66014;53.134;18.006;2023-08-20T06:22:40;15.10;;;12.10;;
77085;SDS011;66014;53.134;18.006;2023-08-20T06:25:06;14.90;;;11.40;;
77085;SDS011;66014;53.134;18.006;2023-08-20T06:27:33;15.60;;;12.10;;
77085;SDS011;66014;53.134;18.006;2023-08-20T06:30:00;15.20;;;11.70;;
77085;SDS011;66014;53.134;18.006;2023-08-20T06:32:26;13.40;;;11.00;;
77085;SDS011;66014;53.134;18.006;2023-08-20T06:34:53;14.70;;;12.00;;
77085;SDS011;66014;53.134;18.006;2023-08-20T06:37:19;14.70;;;12.70;;
77085;SDS011;66014;53.134;18.006;2023-08-20T06:39:46;13.60;;;10.60;;
77085;SDS011;66014;53.134;18.006;2023-08-20T06:42:12;11.80;;;10.60;;
77085;SDS011;66014;53.134;18.006;2023-08-20T06:44:39;12.40;;;9.70;;
77085;SDS011;66014;53.134;18.006;2023-08-20T06:47:06;12.50;;;10.90;;
77085;SDS011;66014;53.134;18.006;2023-08-20T06:49:32;11.30;;;10.00;;
77085;SDS011;66014;53.134;18.006;2023-08-20T06:51:59;12.80;;;10.00;;
77085;SDS011;66014;53.134;18.006;2023-08-20T06:54:25;11.70;;;10.20;;
77085;SDS011;66014;53.134;18.006;2023-08-20T06:56:52;10.80;;;9.50;;
77085;SDS011;66014;53.134;18.006;2023-08-20T06:59:18;10.30;;;9.20;;
77085;SDS011;66014;53.134;18.006;2023-08-20T07:01:45;10.50;;;9.30;;
77085;SDS011;66014;53.134;18.006;2023-08-20T07:04:11;10.80;;;9.70;;
77085;SDS011;66014;53.134;18.006;2023-08-20T07:06:38;10.60;;;9.40;;
77085;SDS011;66014;53.134;18.006;2023-08-20T07:09:05;11.30;;;9.30;;
77085;SDS011;66014;53.134;18.006;2023-08-20T07:11:32;9.60;;;8.10;;
77085;SDS011;66014;53.134;18.006;2023-08-20T07:13:58;10.40;;;7.80;;
77085;SDS011;66014;53.134;18.006;2023-08-20T07:16:25;8.90;;;7.90;;
77085;SDS011;66014;53.134;18.006;2023-08-20T07:18:52;8.70;;;7.80;;
77085;SDS011;66014;53.134;18.006;2023-08-20T07:21:19;9.20;;;7.40;;
77085;SDS011;66014;53.134;18.006;2023-08-20T07:23:45;7.90;;;7.10;;
77085;SDS011;66014;53.134;18.006;2023-08-20T07:26:12;10.90;;;8.70;;
77085;SDS011;66014;53.134;18.006;2023-08-20T07:28:38;9.30;;;8.30;;
77085;SDS011;66014;53.134;18.006;2023-08-20T07:31:25;9.70;;;7.70;;
77085;SDS011;66014;53.134;18.006;2023-08-20T07:33:57;9.10;;;8.10;;
77085;SDS011;66014;53.134;18.006;2023-08-20T07:36:25;9.90;;;8.50;;
77085;SDS011;66014;53.134;18.006;2023-08-20T07:38:53;8.50;;;7.50;;
77085;SDS011;66014;53.134;18.006;2023-08-20T07:41:20;9.10;;;7.50;;
77085;SDS011;66014;53.134;18.006;2023-08-20T07:43:48;8.50;;;7.60;;
77085;SDS011;66014;53.134;18.006;2023-08-20T07:46:18;9.70;;;7.80;;
77085;SDS011;66014;53.134;18.006;2023-08-20T07:48:46;10.10;;;7.50;;
77085;SDS011;66014;53.134;18.006;2023-08-20T07:51:28;7.90;;;7.10;;
77085;SDS011;66014;53.134;18.006;2023-08-20T07:54:20;9.60;;;8.10;;
77085;SDS011;66014;53.134;18.006;2023-08-20T07:56:46;9.30;;;8.40;;
77085;SDS011;66014;53.134;18.006;2023-08-20T07:59:28;11.30;;;7.90;;
77085;SDS011;66014;53.134;18.006;2023-08-20T08:02:18;9.40;;;8.40;;
77085;SDS011;66014;53.134;18.006;2023-08-20T08:08:42;9.10;;;7.80;;
77085;SDS011;66014;53.134;18.006;2023-08-20T08:12:25;8.90;;;7.40;;
77085;SDS011;66014;53.134;18.006;2023-08-20T08:27:49;6.80;;;6.10;;
77085;SDS011;66014;53.134;18.006;2023-08-20T08:49:48;6.70;;;5.40;;
77085;SDS011;66014;53.134;18.006;2023-08-20T08:52:18;6.20;;;5.20;;
77085;SDS011;66014;53.134;18.006;2023-08-20T08:54:51;8.80;;;5.60;;
77085;SDS011;66014;53.134;18.006;2023-08-20T08:57:18;6.60;;;5.90;;
77085;SDS011;66014;53.134;18.006;2023-08-20T08:59:45;7.00;;;6.20;;
77085;SDS011;66014;53.134;18.006;2023-08-20T09:02:12;7.20;;;5.70;;
77085;SDS011;66014;53.134;18.006;2023-08-20T09:04:41;7.00;;;5.50;;
77085;SDS011;66014;53.134;18.006;2023-08-20T09:07:12;6.90;;;6.20;;
77085;SDS011;66014;53.134;18.006;2023-08-20T09:09:43;7.70;;;6.70;;
77085;SDS011;66014;53.134;18.006;2023-08-20T09:12:18;7.10;;;6.00;;
77085;SDS011;66014;53.134;18.006;2023-08-20T09:14:48;9.50;;;6.70;;
77085;SDS011;66014;53.134;18.006;2023-08-20T09:17:16;9.80;;;6.10;;
77085;SDS011;66014;53.134;18.006;2023-08-20T09:19:45;7.00;;;6.00;;
77085;SDS011;66014;53.134;18.006;2023-08-20T09:22:12;7.60;;;5.60;;
77085;SDS011;66014;53.134;18.006;2023-08-20T09:24:46;9.30;;;6.80;;
77085;SDS011;66014;53.134;18.006;2023-08-20T09:27:16;6.50;;;5.80;;
77085;SDS011;66014;53.134;18.006;2023-08-20T09:29:48;7.10;;;6.00;;
77085;SDS011;66014;53.134;18.006;2023-08-20T09:32:20;6.80;;;5.60;;
77085;SDS011;66014;53.134;18.006;2023-08-20T09:37:18;6.40;;;5.80;;
77085;SDS011;66014;53.134;18.006;2023-08-20T09:39:50;6.60;;;5.40;;
77085;SDS011;66014;53.134;18.006;2023-08-20T09:42:17;5.90;;;5.10;;
77085;SDS011;66014;53.134;18.006;2023-08-20T09:44:44;5.90;;;5.00;;
77085;SDS011;66014;53.134;18.006;2023-08-20T09:47:13;6.40;;;5.80;;
77085;SDS011;66014;53.134;18.006;2023-08-20T09:49:44;6.70;;;5.00;;
77085;SDS011;66014;53.134;18.006;2023-08-20T09:52:16;7.30;;;5.40;;
77085;SDS011;66014;53.134;18.006;2023-08-20T09:55:00;7.60;;;5.10;;
77085;SDS011;66014;53.134;18.006;2023-08-20T09:57:34;7.00;;;5.60;;
77085;SDS011;66014;53.134;18.006;2023-08-20T10:00:03;6.00;;;5.00;;
77085;SDS011;66014;53.134;18.006;2023-08-20T10:02:33;7.00;;;6.10;;
77085;SDS011;66014;53.134;18.006;2023-08-20T10:05:00;6.80;;;5.00;;
77085;SDS011;66014;53.134;18.006;2023-08-20T10:07:29;7.30;;;6.10;;
77085;SDS011;66014;53.134;18.006;2023-08-20T10:10:00;6.50;;;5.60;;
77085;SDS011;66014;53.134;18.006;2023-08-20T10:12:29;7.70;;;5.60;;
77085;SDS011;66014;53.134;18.006;2023-08-20T10:14:57;5.70;;;5.20;;
77085;SDS011;66014;53.134;18.006;2023-08-20T10:17:25;8.70;;;5.20;;
77085;SDS011;66014;53.134;18.006;2023-08-20T10:19:57;6.30;;;4.90;;
77085;SDS011;66014;53.134;18.006;2023-08-20T10:25:00;5.70;;;5.00;;
77085;SDS011;66014;53.134;18.006;2023-08-20T10:27:33;6.50;;;5.80;;
77085;SDS011;66014;53.134;18.006;2023-08-20T10:30:02;7.40;;;5.50;;
77085;SDS011;66014;53.134;18.006;2023-08-20T10:35:18;6.60;;;5.30;;
77085;SDS011;66014;53.134;18.006;2023-08-20T10:46:15;7.20;;;5.00;;
77085;SDS011;66014;53.134;18.006;2023-08-20T10:48:49;6.10;;;5.10;;
77085;SDS011;66014;53.134;18.006;2023-08-20T12:28:34;6.20;;;4.50;;
77085;SDS011;66014;53.134;18.006;2023-08-20T12:31:00;6.30;;;4.40;;
77085;SDS011;66014;53.134;18.006;2023-08-20T12:33:27;7.00;;;5.10;;
77085;SDS011;66014;53.134;18.006;2023-08-20T12:35:54;6.30;;;5.30;;
77085;SDS011;66014;53.134;18.006;2023-08-20T12:38:22;6.60;;;4.70;;
77085;SDS011;66014;53.134;18.006;2023-08-20T12:40:48;7.20;;;4.60;;
77085;SDS011;66014;53.134;18.006;2023-08-20T12:43:18;6.30;;;5.00;;
77085;SDS011;66014;53.134;18.006;2023-08-20T12:45:44;6.10;;;4.90;;
77085;SDS011;66014;53.134;18.006;2023-08-20T12:48:11;5.30;;;4.70;;
77085;SDS011;66014;53.134;18.006;2023-08-20T12:50:38;5.20;;;4.50;;
77085;SDS011;66014;53.134;18.006;2023-08-20T12:53:05;9.60;;;5.10;;
77085;SDS011;66014;53.134;18.006;2023-08-20T12:55:31;5.90;;;5.10;;
77085;SDS011;66014;53.134;18.006;2023-08-20T12:57:58;5.40;;;4.80;;
77085;SDS011;66014;53.134;18.006;2023-08-20T13:00:26;6.20;;;4.20;;
77085;SDS011;66014;53.134;18.006;2023-08-20T13:02:53;6.90;;;5.00;;
77085;SDS011;66014;53.134;18.006;2023-08-20T13:05:24;5.10;;;4.60;;
77085;SDS011;66014;53.134;18.006;2023-08-20T13:11:33;5.00;;;4.40;;
77085;SDS011;66014;53.134;18.006;2023-08-20T13:14:00;6.90;;;4.50;;
77085;SDS011;66014;53.134;18.006;2023-08-20T13:16:26;5.50;;;4.80;;
77085;SDS011;66014;53.134;18.006;2023-08-20T13:18:56;6.80;;;5.10;;
77085;SDS011;66014;53.134;18.006;2023-08-20T13:21:37;6.30;;;5.00;;
77085;SDS011;66014;53.134;18.006;2023-08-20T13:24:05;7.20;;;5.10;;
77085;SDS011;66014;53.134;18.006;2023-08-20T13:26:32;5.30;;;4.50;;
77085;SDS011;66014;53.134;18.006;2023-08-20T13:28:59;6.00;;;5.00;;
77085;SDS011;66014;53.134;18.006;2023-08-20T13:31:26;5.60;;;4.70;;
77085;SDS011;66014;53.134;18.006;2023-08-20T13:33:53;5.80;;;4.80;;
77085;SDS011;66014;53.134;18.006;2023-08-20T13:36:20;8.10;;;5.20;;
77085;SDS011;66014;53.134;18.006;2023-08-20T13:38:52;6.40;;;4.80;;
77085;SDS011;66014;53.134;18.006;2023-08-20T13:41:18;5.30;;;4.50;;
77085;SDS011;66014;53.134;18.006;2023-08-20T13:47:48;6.20;;;4.90;;
77085;SDS011;66014;53.134;18.006;2023-08-20T13:50:18;8.70;;;5.10;;
77085;SDS011;66014;53.134;18.006;2023-08-20T13:55:59;5.60;;;4.90;;
77085;SDS011;66014;53.134;18.006;2023-08-20T13:58:52;5.90;;;5.30;;
77085;SDS011;66014;53.134;18.006;2023-08-20T14:01:55;8.20;;;5.90;;
77085;SDS011;66014;53.134;18.006;2023-08-20T14:04:36;5.60;;;4.90;;
77085;SDS011;66014;53.134;18.006;2023-08-20T14:07:03;8.00;;;5.60;;
77085;SDS011;66014;53.134;18.006;2023-08-20T14:09:29;5.80;;;4.70;;
77085;SDS011;66014;53.134;18.006;2023-08-20T14:11:56;6.70;;;5.10;;
77085;SDS011;66014;53.134;18.006;2023-08-20T14:14:22;6.70;;;5.40;;
77085;SDS011;66014;53.134;18.006;2023-08-20T14:16:53;6.90;;;5.30;;
77085;SDS011;66014;53.134;18.006;2023-08-20T14:19:19;10.20;;;5.40;;
77085;SDS011;66014;53.134;18.006;2023-08-20T14:21:46;7.20;;;5.80;;
77085;SDS011;66014;53.134;18.006;2023-08-20T14:24:13;7.80;;;5.90;;
77085;SDS011;66014;53.134;18.006;2023-08-20T14:26:43;8.80;;;5.40;;
77085;SDS011;66014;53.134;18.006;2023-08-20T14:29:12;5.70;;;5.10;;
77085;SDS011;66014;53.134;18.006;2023-08-20T14:31:38;7.10;;;5.80;;
77085;SDS011;66014;53.134;18.006;2023-08-20T14:34:05;6.90;;;5.90;;
77085;SDS011;66014;53.134;18.006;2023-08-20T14:36:31;6.90;;;5.50;;
77085;SDS011;66014;53.134;18.006;2023-08-20T14:38:58;7.20;;;5.90;;
77085;SDS011;66014;53.134;18.006;2023-08-20T14:41:24;7.20;;;5.90;;
77085;SDS011;66014;53.134;18.006;2023-08-20T14:43:51;9.20;;;6.90;;
77085;SDS011;66014;53.134;18.006;2023-08-20T14:46:17;8.70;;;7.20;;
77085;SDS011;66014;53.134;18.006;2023-08-20T14:48:44;10.50;;;8.80;;
77085;SDS011;66014;53.134;18.006;2023-08-20T14:51:11;11.20;;;7.90;;
77085;SDS011;66014;53.134;18.006;2023-08-20T14:53:38;8.80;;;7.80;;
77085;SDS011;66014;53.134;18.006;2023-08-20T14:56:05;9.10;;;7.10;;
77085;SDS011;66014;53.134;18.006;2023-08-20T14:58:32;7.80;;;6.10;;
77085;SDS011;66014;53.134;18.006;2023-08-20T15:01:00;9.80;;;6.60;;
77085;SDS011;66014;53.134;18.006;2023-08-20T15:03:27;7.40;;;6.30;;
77085;SDS011;66014;53.134;18.006;2023-08-20T15:05:53;9.70;;;7.00;;
77085;SDS011;66014;53.134;18.006;2023-08-20T15:08:20;6.40;;;5.80;;
77085;SDS011;66014;53.134;18.006;2023-08-20T15:10:56;8.20;;;6.10;;
77085;SDS011;66014;53.134;18.006;2023-08-20T15:13:28;7.80;;;6.20;;
77085;SDS011;66014;53.134;18.006;2023-08-20T15:15:55;6.80;;;6.10;;
77085;SDS011;66014;53.134;18.006;2023-08-20T15:18:22;9.10;;;6.80;;
77085;SDS011;66014;53.134;18.006;2023-08-20T15:20:55;11.50;;;7.10;;
77085;SDS011;66014;53.134;18.006;2023-08-20T15:23:23;7.50;;;6.30;;
77085;SDS011;66014;53.134;18.006;2023-08-20T15:25:52;8.90;;;4.60;;
77085;SDS011;66014;53.134;18.006;2023-08-20T15:32:16;7.10;;;3.00;;
77085;SDS011;66014;53.134;18.006;2023-08-20T15:34:42;4.70;;;3.10;;
77085;SDS011;66014;53.134;18.006;2023-08-20T15:37:20;8.40;;;3.80;;
77085;SDS011;66014;53.134;18.006;2023-08-20T15:39:48;8.70;;;4.20;;
77085;SDS011;66014;53.134;18.006;2023-08-20T15:42:16;9.80;;;6.10;;
77085;SDS011;66014;53.134;18.006;2023-08-20T15:44:46;7.20;;;4.20;;
77085;SDS011;66014;53.134;18.006;2023-08-20T15:47:14;7.20;;;4.90;;
77085;SDS011;66014;53.134;18.006;2023-08-20T15:49:41;6.30;;;5.10;;
77085;SDS011;66014;53.134;18.006;2023-08-20T15:52:07;5.80;;;5.20;;
77085;SDS011;66014;53.134;18.006;2023-08-20T15:54:34;8.40;;;4.60;;
77085;SDS011;66014;53.134;18.006;2023-08-20T15:57:01;7.80;;;4.30;;
77085;SDS011;66014;53.134;18.006;2023-08-20T15:59:28;5.30;;;4.00;;
77085;SDS011;66014;53.134;18.006;2023-08-20T16:01:54;5.20;;;4.00;;
77085;SDS011;66014;53.134;18.006;2023-08-20T16:04:21;6.00;;;4.40;;
77085;SDS011;66014;53.134;18.006;2023-08-20T16:06:48;6.20;;;4.40;;
77085;SDS011;66014;53.134;18.006;2023-08-20T16:09:14;10.60;;;6.20;;
77085;SDS011;66014;53.134;18.006;2023-08-20T16:11:41;6.70;;;5.00;;
77085;SDS011;66014;53.134;18.006;2023-08-20T16:14:08;7.80;;;5.20;;
77085;SDS011;66014;53.134;18.006;2023-08-20T16:16:34;7.90;;;4.60;;
77085;SDS011;66014;53.134;18.006;2023-08-20T16:19:02;6.20;;;4.80;;
77085;SDS011;66014;53.134;18.006;2023-08-20T16:21:29;7.60;;;4.00;;
77085;SDS011;66014;53.134;18.006;2023-08-20T16:23:55;6.90;;;4.20;;
77085;SDS011;66014;53.134;18.006;2023-08-20T16:26:22;5.40;;;3.90;;
77085;SDS011;66014;53.134;18.006;2023-08-20T16:28:49;8.10;;;4.60;;
77085;SDS011;66014;53.134;18.006;2023-08-20T16:31:15;5.70;;;4.00;;
77085;SDS011;66014;53.134;18.006;2023-08-20T16:33:42;6.10;;;4.50;;
77085;SDS011;66014;53.134;18.006;2023-08-20T16:36:08;9.90;;;4.60;;
77085;SDS011;66014;53.134;18.006;2023-08-20T16:38:35;6.40;;;4.30;;
77085;SDS011;66014;53.134;18.006;2023-08-20T16:41:01;5.00;;;3.70;;
77085;SDS011;66014;53.134;18.006;2023-08-20T16:43:31;4.90;;;3.50;;
77085;SDS011;66014;53.134;18.006;2023-08-20T16:45:58;4.90;;;3.60;;
77085;SDS011;66014;53.134;18.006;2023-08-20T16:48:26;5.50;;;3.60;;
77085;SDS011;66014;53.134;18.006;2023-08-20T16:50:57;5.60;;;4.10;;
77085;SDS011;66014;53.134;18.006;2023-08-20T16:53:25;6.00;;;4.00;;
77085;SDS011;66014;53.134;18.006;2023-08-20T16:55:54;4.60;;;3.60;;
77085;SDS011;66014;53.134;18.006;2023-08-20T16:58:28;6.50;;;4.30;;
77085;SDS011;66014;53.134;18.006;2023-08-20T17:00:54;6.10;;;3.80;;
77085;SDS011;66014;53.134;18.006;2023-08-20T17:03:22;6.80;;;3.60;;
77085;SDS011;66014;53.134;18.006;2023-08-20T17:06:02;5.70;;;3.30;;
77085;SDS011;66014;53.134;18.006;2023-08-20T17:08:30;4.40;;;3.30;;
77085;SDS011;66014;53.134;18.006;2023-08-20T17:11:07;6.20;;;3.70;;
77085;SDS011;66014;53.134;18.006;2023-08-20T17:13:36;5.10;;;3.80;;
77085;SDS011;66014;53.134;18.006;2023-08-20T17:16:04;5.40;;;3.50;;
77085;SDS011;66014;53.134;18.006;2023-08-20T17:18:31;5.00;;;3.40;;
77085;SDS011;66014;53.134;18.006;2023-08-20T17:20:59;4.50;;;3.80;;
77085;SDS011;66014;53.134;18.006;2023-08-20T17:23:31;7.30;;;3.60;;